Llagostera, Spain
Current Conditions -  °F | °C
As of 1:30 PM on Monday 26 Jan 2015 (Local Time) from LEGE Reporting Station
Broken Clouds Broken Clouds  
Wind Chill: 41°   Ceiling: 7000
Heat Index: 45°   Visibility: 6mi
Dew Point: 32°   Wind: 6mph
Humidity: 61%   Direction: 20°NNE
Pressure: 30.3"   Gusts: NA
Location:  41.83°N, 2.89°E
Report Text: LEGE 261230Z 02005KT 350V050 9999 FEW030 SCT045 BKN070 07/00 Q1026
Loading
Personal Weather Stations






























Interactive Weather Map New forecast layout! Learn more

10-Day Weather Forecast

Advertisements
Track Severe Weather on mobile